createdAt,value
2019-03-27T00:00:16.555Z,16.57
2019-03-27T00:02:39.978Z,19.07
2019-03-27T00:05:03.427Z,18.30
2019-03-27T00:07:26.897Z,21.13
2019-03-27T00:09:50.324Z,19.13
2019-03-27T00:12:14.050Z,18.20
2019-03-27T00:14:37.478Z,22.07
2019-03-27T00:17:01.007Z,22.67
2019-03-27T00:19:24.457Z,21.00
2019-03-27T00:21:47.935Z,21.47
2019-03-27T00:24:11.393Z,18.33
2019-03-27T00:26:34.818Z,23.87
2019-03-27T00:28:58.270Z,18.80
2019-03-27T00:31:21.736Z,20.73
2019-03-27T00:33:45.162Z,19.03
2019-03-27T00:36:08.610Z,17.70
2019-03-27T00:38:32.033Z,12.10
2019-03-27T00:40:55.497Z,15.43
2019-03-27T00:43:18.957Z,17.03
2019-03-27T00:45:42.376Z,13.23
2019-03-27T00:48:06.108Z,17.73
2019-03-27T00:50:29.566Z,15.87
2019-03-27T00:52:53.079Z,17.13
2019-03-27T00:55:16.616Z,16.47
2019-03-27T00:57:40.070Z,13.17
2019-03-27T01:00:05.440Z,19.67
2019-03-27T01:02:28.909Z,21.63
2019-03-27T01:04:52.342Z,19.03
2019-03-27T01:07:15.755Z,20.07
2019-03-27T01:09:39.287Z,19.10
2019-03-27T01:12:02.710Z,16.57
2019-03-27T01:14:26.189Z,18.40
2019-03-27T01:16:49.623Z,16.07
2019-03-27T01:19:13.046Z,16.63
2019-03-27T01:21:36.522Z,16.73
2019-03-27T01:23:59.939Z,13.53
2019-03-27T01:26:23.391Z,17.67
2019-03-27T01:28:46.849Z,17.07
2019-03-27T01:31:10.274Z,14.83
2019-03-27T01:33:33.734Z,14.67
2019-03-27T01:35:57.188Z,19.47
2019-03-27T01:38:20.613Z,17.80
2019-03-27T01:40:44.079Z,18.10
2019-03-27T01:43:07.580Z,16.70
2019-03-27T01:45:31.007Z,19.83
2019-03-27T01:47:54.451Z,15.37
2019-03-27T01:50:17.874Z,17.07
2019-03-27T01:52:41.410Z,17.33
2019-03-27T01:55:06.889Z,19.27
2019-03-27T01:57:30.351Z,17.80
2019-03-27T01:59:53.781Z,19.47
2019-03-27T02:02:17.240Z,17.87
2019-03-27T02:04:40.997Z,17.97
2019-03-27T02:07:04.453Z,15.43
2019-03-27T02:09:27.930Z,18.07
2019-03-27T02:11:51.339Z,16.17
2019-03-27T02:14:14.810Z,18.93
2019-03-27T02:16:38.280Z,23.90
2019-03-27T02:19:01.745Z,21.07
2019-03-27T02:21:25.166Z,14.77
2019-03-27T02:23:48.632Z,19.27
2019-03-27T02:26:12.063Z,16.10
2019-03-27T02:28:35.525Z,13.27
2019-03-27T02:30:58.981Z,17.07
2019-03-27T02:33:22.444Z,15.87
2019-03-27T02:35:46.227Z,16.60
2019-03-27T02:38:09.678Z,17.30
2019-03-27T02:40:33.155Z,18.70
2019-03-27T02:42:56.574Z,13.77
2019-03-27T02:45:20.005Z,20.37
2019-03-27T02:47:43.457Z,16.63
2019-03-27T02:50:07.871Z,18.20
2019-03-27T02:52:31.284Z,22.80
2019-03-27T02:54:54.751Z,14.70
2019-03-27T02:57:18.218Z,21.43
2019-03-27T02:59:41.682Z,16.37
2019-03-27T03:02:05.443Z,17.17
2019-03-27T03:04:28.869Z,18.50
2019-03-27T03:06:52.338Z,21.10
2019-03-27T03:09:15.761Z,19.30
2019-03-27T03:11:39.230Z,19.07
2019-03-27T03:14:03.021Z,21.27
2019-03-27T03:16:41.426Z,23.03
2019-03-27T03:18:51.685Z,19.30
2019-03-27T03:21:15.216Z,21.17
2019-03-27T03:23:38.963Z,21.50
2019-03-27T03:26:02.392Z,24.83
2019-03-27T03:28:25.912Z,21.67
2019-03-27T03:30:49.424Z,19.47
2019-03-27T03:33:12.840Z,22.10
2019-03-27T03:35:36.260Z,21.52
2019-03-27T03:37:59.734Z,20.57
2019-03-27T03:40:23.200Z,18.80
2019-03-27T03:42:46.687Z,18.93
2019-03-27T03:45:10.287Z,16.17
2019-03-27T03:47:33.720Z,15.43
2019-03-27T03:49:57.175Z,14.97
2019-03-27T03:52:22.042Z,15.70
2019-03-27T03:54:45.556Z,14.83
2019-03-27T03:57:09.516Z,17.43
2019-03-27T03:59:33.610Z,18.57
2019-03-27T04:01:57.036Z,17.57
2019-03-27T04:04:23.140Z,18.57
2019-03-27T04:06:46.572Z,16.97
2019-03-27T04:09:10.036Z,17.23
2019-03-27T04:11:33.500Z,18.73
2019-03-27T04:13:56.916Z,18.40
2019-03-27T04:16:20.406Z,24.05
2019-03-27T04:18:43.811Z,15.20
2019-03-27T04:21:07.229Z,15.33
2019-03-27T04:23:30.693Z,17.20
2019-03-27T04:26:09.020Z,18.17
2019-03-27T04:28:19.335Z,20.27
2019-03-27T04:30:42.752Z,19.83
2019-03-27T04:33:06.225Z,15.37
2019-03-27T04:35:29.644Z,12.97
2019-03-27T04:37:53.124Z,17.70
2019-03-27T04:40:16.551Z,15.27
2019-03-27T04:42:40.031Z,13.97
2019-03-27T04:45:03.817Z,18.23
2019-03-27T04:47:32.306Z,14.87
2019-03-27T04:49:52.440Z,16.13
2019-03-27T04:52:15.876Z,14.83
2019-03-27T04:54:39.351Z,15.87
2019-03-27T04:57:02.774Z,14.23
2019-03-27T04:59:26.203Z,12.93
2019-03-27T05:01:49.655Z,21.77
2019-03-27T05:04:13.111Z,23.23
2019-03-27T05:06:36.583Z,27.87
2019-03-27T05:09:00.050Z,29.23
2019-03-27T05:11:23.567Z,25.13
2019-03-27T05:13:46.949Z,20.20
2019-03-27T05:16:10.421Z,22.83
2019-03-27T05:18:33.846Z,22.67
2019-03-27T05:20:57.317Z,22.40
2019-03-27T05:23:20.799Z,19.10
2019-03-27T05:25:44.259Z,17.53
2019-03-27T05:28:07.683Z,18.63
2019-03-27T05:30:31.295Z,18.23
2019-03-27T05:32:54.721Z,18.97
2019-03-27T05:35:18.151Z,18.43
2019-03-27T05:37:41.607Z,20.23
2019-03-27T05:40:07.524Z,22.53
2019-03-27T05:42:30.926Z,24.67
2019-03-27T05:44:54.397Z,22.73
2019-03-27T05:47:17.867Z,26.00
2019-03-27T05:49:41.333Z,22.23
2019-03-27T05:52:04.809Z,18.57
2019-03-27T05:54:28.239Z,17.60
2019-03-27T05:56:51.706Z,16.57
2019-03-27T05:59:15.136Z,17.63
2019-03-27T06:01:38.588Z,17.30
2019-03-27T06:04:02.067Z,19.90
2019-03-27T06:06:25.502Z,23.70
2019-03-27T06:08:48.927Z,23.93
2019-03-27T06:11:12.406Z,25.80
2019-03-27T06:13:35.860Z,18.93
2019-03-27T06:15:59.328Z,23.83
2019-03-27T06:18:22.787Z,24.20
2019-03-27T06:20:46.267Z,19.33
2019-03-27T06:23:09.740Z,23.43
2019-03-27T06:25:33.509Z,22.70
2019-03-27T06:27:56.974Z,22.20
2019-03-27T06:30:20.409Z,23.40
2019-03-27T06:32:43.876Z,26.50
2019-03-27T06:35:08.182Z,29.23
2019-03-27T06:37:31.635Z,23.97
2019-03-27T06:39:55.166Z,23.07
2019-03-27T06:42:18.602Z,24.20
2019-03-27T06:44:42.071Z,26.57
2019-03-27T06:47:05.502Z,28.37
2019-03-27T06:49:28.931Z,25.57
2019-03-27T06:51:52.407Z,24.87
2019-03-27T06:54:15.836Z,32.00
2019-03-27T06:56:39.311Z,43.47
2019-03-27T06:59:02.739Z,63.33
2019-03-27T07:01:26.207Z,60.03
2019-03-27T07:03:49.676Z,42.83
2019-03-27T07:06:13.110Z,42.40
2019-03-27T07:08:36.574Z,42.10
2019-03-27T07:11:00.032Z,41.37
2019-03-27T07:13:23.502Z,36.40
2019-03-27T07:15:46.927Z,37.63
2019-03-27T07:18:10.396Z,35.73
2019-03-27T07:20:33.832Z,28.70
2019-03-27T07:22:57.249Z,35.70
2019-03-27T07:25:20.717Z,28.33
2019-03-27T07:27:44.158Z,28.07
2019-03-27T07:30:08.152Z,28.33
2019-03-27T07:32:31.889Z,28.73
2019-03-27T07:34:55.359Z,26.97
2019-03-27T07:37:19.129Z,27.13
2019-03-27T07:39:42.583Z,29.30
2019-03-27T07:42:06.047Z,30.97
2019-03-27T07:44:29.471Z,28.87
2019-03-27T07:46:52.949Z,28.23
2019-03-27T07:49:16.385Z,29.27
2019-03-27T07:51:40.127Z,28.27
2019-03-27T07:54:03.591Z,25.63
2019-03-27T07:56:27.063Z,24.93
2019-03-27T07:58:50.533Z,25.10
2019-03-27T08:01:13.972Z,25.67
2019-03-27T08:03:37.447Z,24.53
2019-03-27T08:06:00.881Z,25.17
2019-03-27T08:08:24.340Z,21.33
2019-03-27T08:10:47.783Z,27.40
2019-03-27T08:13:11.246Z,22.30
2019-03-27T08:15:34.686Z,24.87
2019-03-27T08:17:58.150Z,25.27
2019-03-27T08:20:21.583Z,22.37
2019-03-27T08:22:45.054Z,25.13
2019-03-27T08:25:09.456Z,27.00
2019-03-27T08:27:32.890Z,19.63
2019-03-27T08:29:56.344Z,24.40
2019-03-27T08:32:19.821Z,23.30
2019-03-27T08:34:43.259Z,22.33
2019-03-27T08:37:06.710Z,24.57
2019-03-27T08:39:30.183Z,28.13
2019-03-27T08:41:53.621Z,26.13
2019-03-27T08:44:17.076Z,23.63
2019-03-27T08:46:40.537Z,22.80
2019-03-27T08:49:03.975Z,23.43
2019-03-27T08:51:27.443Z,19.60
2019-03-27T08:53:50.909Z,20.67
2019-03-27T08:56:14.342Z,23.07
2019-03-27T08:58:37.819Z,20.17
2019-03-27T09:01:01.250Z,28.70
2019-03-27T09:03:24.750Z,20.90
2019-03-27T09:05:48.469Z,20.17
2019-03-27T09:08:11.922Z,19.67
2019-03-27T09:10:35.405Z,23.00
2019-03-27T09:12:58.870Z,23.40
2019-03-27T09:15:22.300Z,27.30
2019-03-27T09:17:45.767Z,24.97
2019-03-27T09:20:09.533Z,20.77
2019-03-27T09:22:33.005Z,23.73
2019-03-27T09:24:56.431Z,18.77
2019-03-27T09:27:19.858Z,22.07
2019-03-27T09:29:43.333Z,17.07
2019-03-27T09:32:06.801Z,16.70
2019-03-27T09:34:30.269Z,14.37
2019-03-27T09:36:53.690Z,20.07
2019-03-27T09:39:17.157Z,17.67
2019-03-27T09:41:40.589Z,16.47
2019-03-27T09:44:04.123Z,13.40
2019-03-27T09:46:27.556Z,15.57
2019-03-27T09:48:51.025Z,19.93
2019-03-27T09:51:14.454Z,21.40
2019-03-27T09:53:37.989Z,16.07
2019-03-27T09:56:01.440Z,14.30
2019-03-27T09:58:24.857Z,17.10
2019-03-27T10:00:52.011Z,12.80
2019-03-27T10:03:15.443Z,13.30
2019-03-27T10:05:38.867Z,15.80
2019-03-27T10:08:02.334Z,15.63
2019-03-27T10:10:25.791Z,17.27
2019-03-27T10:12:49.221Z,11.97
2019-03-27T10:15:12.983Z,15.67
2019-03-27T10:17:36.516Z,14.00
2019-03-27T10:20:03.803Z,12.33
2019-03-27T10:22:25.072Z,11.27
2019-03-27T10:24:48.501Z,14.30
2019-03-27T10:27:11.971Z,17.67
2019-03-27T10:29:35.525Z,11.73
2019-03-27T10:31:58.910Z,12.37
2019-03-27T10:34:22.391Z,15.40
2019-03-27T10:36:45.823Z,12.43
2019-03-27T10:39:09.355Z,10.50
2019-03-27T10:41:32.781Z,13.07
2019-03-27T10:43:56.260Z,9.60
2019-03-27T10:46:19.678Z,5.87
2019-03-27T10:48:52.556Z,6.30
2019-03-27T10:51:08.305Z,6.80
2019-03-27T10:53:31.726Z,4.63
2019-03-27T10:55:55.188Z,4.43
2019-03-27T10:58:18.655Z,9.53
2019-03-27T11:00:42.119Z,8.10
2019-03-27T11:03:05.535Z,8.13
2019-03-27T11:05:29.007Z,5.97
2019-03-27T11:07:52.871Z,3.90
2019-03-27T11:10:16.431Z,5.80
2019-03-27T11:12:39.907Z,6.57
2019-03-27T11:15:04.598Z,6.67
2019-03-27T11:17:28.061Z,8.03
2019-03-27T11:19:51.481Z,7.10
2019-03-27T11:22:14.957Z,8.90
2019-03-27T11:24:38.380Z,5.03
2019-03-27T11:27:01.802Z,7.00
2019-03-27T11:29:26.180Z,8.23
2019-03-27T11:31:49.611Z,10.33
2019-03-27T11:34:13.068Z,7.93
2019-03-27T11:36:36.492Z,14.00
2019-03-27T11:38:59.990Z,6.40
2019-03-27T11:41:23.392Z,7.40
2019-03-27T11:43:54.686Z,8.73
2019-03-27T11:46:12.374Z,7.17
2019-03-27T11:48:35.796Z,9.03
2019-03-27T11:50:59.604Z,6.27
2019-03-27T11:53:23.047Z,12.77
2019-03-27T11:55:46.526Z,10.20
2019-03-27T11:58:09.938Z,7.97
2019-03-27T12:00:33.405Z,6.20
2019-03-27T12:02:56.877Z,4.80
2019-03-27T12:05:20.301Z,5.10
2019-03-27T12:07:43.724Z,5.67
2019-03-27T12:10:07.434Z,8.27
2019-03-27T12:12:30.857Z,9.47
2019-03-27T12:14:54.277Z,7.00
2019-03-27T12:17:17.745Z,8.83
2019-03-27T12:19:41.171Z,6.33
2019-03-27T12:22:04.661Z,7.07
2019-03-27T12:24:28.884Z,7.53
2019-03-27T12:26:52.539Z,7.93
2019-03-27T12:29:18.167Z,5.67
2019-03-27T12:31:41.136Z,5.00
2019-03-27T12:34:04.588Z,5.37
2019-03-27T12:36:28.017Z,7.87
2019-03-27T12:38:51.482Z,6.70
2019-03-27T12:41:14.900Z,7.37
2019-03-27T12:43:38.367Z,6.00
2019-03-27T12:46:01.795Z,5.47
2019-03-27T12:48:25.224Z,6.90
2019-03-27T12:50:48.680Z,7.53
2019-03-27T12:53:12.099Z,5.90
2019-03-27T12:55:35.638Z,5.03
2019-03-27T12:57:59.058Z,6.80
2019-03-27T13:00:22.625Z,5.13
2019-03-27T13:02:46.095Z,8.03
2019-03-27T13:05:09.860Z,6.87
2019-03-27T13:07:33.324Z,6.50
2019-03-27T13:09:56.784Z,6.97
2019-03-27T13:12:20.216Z,7.93
2019-03-27T13:14:43.677Z,8.73
2019-03-27T13:17:07.098Z,8.00
2019-03-27T13:19:30.553Z,7.70
2019-03-27T13:21:53.978Z,10.90
2019-03-27T13:24:17.423Z,7.70
2019-03-27T13:26:40.881Z,7.67
2019-03-27T13:29:04.295Z,6.63
2019-03-27T13:31:27.762Z,9.90
2019-03-27T13:33:51.183Z,6.07
2019-03-27T13:36:14.976Z,6.33
2019-03-27T13:38:38.451Z,5.20
2019-03-27T13:41:02.165Z,12.00
2019-03-27T13:43:25.635Z,7.33
2019-03-27T13:45:49.066Z,7.57
2019-03-27T13:48:12.490Z,5.93
2019-03-27T13:50:36.225Z,5.90
2019-03-27T13:52:59.649Z,6.23
2019-03-27T13:55:23.110Z,7.03
2019-03-27T13:57:46.542Z,6.83
2019-03-27T14:00:14.258Z,6.73
2019-03-27T14:02:38.049Z,4.67
2019-03-27T14:05:01.524Z,6.20
2019-03-27T14:07:24.943Z,6.67
2019-03-27T14:09:48.738Z,6.10
2019-03-27T14:12:12.159Z,7.83
2019-03-27T14:14:49.331Z,6.70
2019-03-27T14:17:00.782Z,6.50
2019-03-27T14:19:24.201Z,5.77
2019-03-27T14:21:54.466Z,5.50
2019-03-27T14:24:12.810Z,6.07
2019-03-27T14:26:44.876Z,5.90
2019-03-27T14:29:01.432Z,7.20
2019-03-27T14:31:24.892Z,5.30
2019-03-27T14:33:48.309Z,5.57
2019-03-27T14:36:11.779Z,5.83
2019-03-27T14:38:35.205Z,5.40
2019-03-27T14:40:58.738Z,5.90
2019-03-27T14:43:22.189Z,7.30
2019-03-27T14:45:45.613Z,3.80
2019-03-27T14:48:09.155Z,5.90
2019-03-27T14:50:32.578Z,6.23
2019-03-27T14:52:56.033Z,8.00
2019-03-27T14:55:19.593Z,10.77
2019-03-27T14:57:43.054Z,5.30
2019-03-27T15:00:09.316Z,5.93
2019-03-27T15:02:33.113Z,7.30
2019-03-27T15:04:56.575Z,7.27
2019-03-27T15:07:20.023Z,5.97
2019-03-27T15:09:43.444Z,5.43
2019-03-27T15:12:06.904Z,5.73
2019-03-27T15:14:30.325Z,7.03
2019-03-27T15:16:53.752Z,4.90
2019-03-27T15:19:17.221Z,5.33
2019-03-27T15:21:40.645Z,5.13
2019-03-27T15:24:04.139Z,4.37
2019-03-27T15:26:27.596Z,3.93
2019-03-27T15:28:51.247Z,7.53
2019-03-27T15:31:20.280Z,4.97
2019-03-27T15:33:39.866Z,4.77
2019-03-27T15:36:03.298Z,3.90
2019-03-27T15:38:26.716Z,6.60
2019-03-27T15:40:50.188Z,5.80
2019-03-27T15:43:13.604Z,3.63
2019-03-27T15:45:37.056Z,4.00
2019-03-27T15:48:00.502Z,5.50
2019-03-27T15:50:23.947Z,5.90
2019-03-27T15:52:47.402Z,5.40
2019-03-27T15:55:11.504Z,9.93
2019-03-27T15:57:34.966Z,5.40
2019-03-27T15:59:58.390Z,8.33
2019-03-27T16:02:21.856Z,9.03
2019-03-27T16:04:45.319Z,10.53
2019-03-27T16:07:08.777Z,7.33
2019-03-27T16:09:32.233Z,7.47
2019-03-27T16:11:55.696Z,4.53
2019-03-27T16:14:19.158Z,8.43
2019-03-27T16:16:56.239Z,10.00
2019-03-27T16:19:07.765Z,8.43
2019-03-27T16:21:31.227Z,8.67
2019-03-27T16:24:05.762Z,10.03
2019-03-27T16:26:19.863Z,6.77
2019-03-27T16:28:43.286Z,10.50
2019-03-27T16:31:06.777Z,7.53
2019-03-27T16:33:30.272Z,8.10
2019-03-27T16:35:53.700Z,11.03
2019-03-27T16:38:17.123Z,7.37
2019-03-27T16:40:44.630Z,10.33
2019-03-27T16:43:08.102Z,8.77
2019-03-27T16:45:31.522Z,9.63
2019-03-27T16:47:54.947Z,10.60
2019-03-27T16:50:18.479Z,8.53
2019-03-27T16:52:41.938Z,8.53
2019-03-27T16:55:07.407Z,8.63
2019-03-27T16:57:30.870Z,10.80
2019-03-27T16:59:54.298Z,8.97
2019-03-27T17:02:17.758Z,7.60
2019-03-27T17:04:41.204Z,8.63
2019-03-27T17:07:05.112Z,9.10
2019-03-27T17:09:28.823Z,10.53
2019-03-27T17:11:52.591Z,9.70
2019-03-27T17:14:16.038Z,8.43
2019-03-27T17:16:39.507Z,11.03
2019-03-27T17:19:02.973Z,9.23
2019-03-27T17:21:26.394Z,8.23
2019-03-27T17:23:49.812Z,9.30
2019-03-27T17:26:13.286Z,8.80
2019-03-27T17:28:36.710Z,11.13
2019-03-27T17:31:00.130Z,8.83
2019-03-27T17:33:23.687Z,10.23
2019-03-27T17:35:47.215Z,8.70
2019-03-27T17:38:11.176Z,9.10
2019-03-27T17:40:34.664Z,11.13
2019-03-27T17:42:58.140Z,8.73
2019-03-27T17:45:21.690Z,12.40
2019-03-27T17:47:51.047Z,11.87
2019-03-27T17:50:15.562Z,9.90
2019-03-27T17:52:38.991Z,9.60
2019-03-27T17:55:02.443Z,11.43
2019-03-27T17:57:25.909Z,8.83
2019-03-27T17:59:49.371Z,10.00
2019-03-27T18:02:12.848Z,10.13
2019-03-27T18:04:36.269Z,10.30
2019-03-27T18:07:00.572Z,7.93
2019-03-27T18:09:24.045Z,15.60
2019-03-27T18:11:47.628Z,10.10
2019-03-27T18:14:11.165Z,11.70
2019-03-27T18:16:34.596Z,12.50
2019-03-27T18:18:58.072Z,12.87
2019-03-27T18:21:21.535Z,11.77
2019-03-27T18:23:46.631Z,13.93
2019-03-27T18:26:10.572Z,9.07
2019-03-27T18:28:33.996Z,12.43
2019-03-27T18:30:57.477Z,10.33
2019-03-27T18:33:20.918Z,10.97
2019-03-27T18:35:44.369Z,9.60
2019-03-27T18:38:07.801Z,10.03
2019-03-27T18:40:31.231Z,7.80
2019-03-27T18:42:54.686Z,9.80
2019-03-27T18:45:18.124Z,11.03
2019-03-27T18:47:41.575Z,9.30
2019-03-27T18:50:07.079Z,9.13
2019-03-27T18:52:30.509Z,11.00
2019-03-27T18:54:53.977Z,10.27
2019-03-27T18:57:17.766Z,9.20
2019-03-27T18:59:41.284Z,8.63
2019-03-27T19:02:04.776Z,13.13
2019-03-27T19:04:28.249Z,12.93
2019-03-27T19:06:51.682Z,14.40
2019-03-27T19:09:15.151Z,12.57
2019-03-27T19:11:38.615Z,15.93
2019-03-27T19:14:02.042Z,17.03
2019-03-27T19:16:25.508Z,17.23
2019-03-27T19:18:49.004Z,14.90
2019-03-27T19:21:12.897Z,16.30
2019-03-27T19:23:36.334Z,13.67
2019-03-27T19:25:59.788Z,11.30
2019-03-27T19:28:23.251Z,15.13
2019-03-27T19:30:46.685Z,13.67
2019-03-27T19:33:10.207Z,12.10
2019-03-27T19:35:33.632Z,7.17
2019-03-27T19:37:57.145Z,8.10
2019-03-27T19:40:20.568Z,9.43
2019-03-27T19:42:43.990Z,11.90
2019-03-27T19:45:07.931Z,11.80
2019-03-27T19:47:31.397Z,13.53
2019-03-27T19:49:54.816Z,12.37
2019-03-27T19:52:18.241Z,9.23
2019-03-27T19:54:41.706Z,11.00
2019-03-27T19:57:05.137Z,11.10
2019-03-27T19:59:28.609Z,10.50
2019-03-27T20:01:52.041Z,14.37
2019-03-27T20:04:15.466Z,10.27
2019-03-27T20:06:39.302Z,10.50
2019-03-27T20:09:02.726Z,14.07
2019-03-27T20:11:26.237Z,14.37
2019-03-27T20:13:49.613Z,12.67
2019-03-27T20:16:13.358Z,9.67
2019-03-27T20:18:37.129Z,11.93
2019-03-27T20:21:00.550Z,9.33
2019-03-27T20:23:24.012Z,13.83
2019-03-27T20:25:47.435Z,12.73
2019-03-27T20:28:10.899Z,13.57
2019-03-27T20:30:34.324Z,11.90
2019-03-27T20:32:57.742Z,12.83
2019-03-27T20:35:22.889Z,11.17
2019-03-27T20:37:46.400Z,16.23
2019-03-27T20:40:11.793Z,11.87
2019-03-27T20:42:35.341Z,13.80
2019-03-27T20:44:58.756Z,10.70
2019-03-27T20:47:22.219Z,14.70
2019-03-27T20:49:45.676Z,12.30
2019-03-27T20:52:09.103Z,11.73
2019-03-27T20:54:32.567Z,11.67
2019-03-27T20:56:55.993Z,12.03
2019-03-27T20:59:19.438Z,13.93
2019-03-27T21:01:42.905Z,23.17
2019-03-27T21:04:06.413Z,18.27
2019-03-27T21:06:29.864Z,18.07
2019-03-27T21:08:53.638Z,11.13
2019-03-27T21:11:17.058Z,12.00
2019-03-27T21:13:41.190Z,10.07
2019-03-27T21:16:04.961Z,10.87
2019-03-27T21:18:28.386Z,8.80
2019-03-27T21:20:51.850Z,10.57
2019-03-27T21:23:15.272Z,10.07
2019-03-27T21:25:38.693Z,10.90
2019-03-27T21:28:02.137Z,9.50
2019-03-27T21:30:25.557Z,10.73
2019-03-27T21:32:49.030Z,11.07
2019-03-27T21:35:13.263Z,10.03
2019-03-27T21:37:36.688Z,10.33
2019-03-27T21:40:00.469Z,11.13
2019-03-27T21:42:23.961Z,11.33
2019-03-27T21:44:47.417Z,9.03
2019-03-27T21:47:10.861Z,14.73
2019-03-27T21:49:34.304Z,12.27
2019-03-27T21:51:57.749Z,9.07
2019-03-27T21:54:21.169Z,11.37
2019-03-27T21:56:44.646Z,11.22
2019-03-27T21:59:08.067Z,16.53
2019-03-27T22:01:31.488Z,12.57
2019-03-27T22:03:54.944Z,12.40
2019-03-27T22:06:18.692Z,9.87
2019-03-27T22:08:42.155Z,14.63
2019-03-27T22:11:05.625Z,13.07
2019-03-27T22:13:29.050Z,16.03
2019-03-27T22:15:52.474Z,14.47
2019-03-27T22:18:15.938Z,13.00
2019-03-27T22:20:39.913Z,13.43
2019-03-27T22:23:03.379Z,13.10
2019-03-27T22:25:35.901Z,14.87
2019-03-27T22:27:51.991Z,14.43
2019-03-27T22:30:15.412Z,14.80
2019-03-27T22:32:38.884Z,13.73
2019-03-27T22:35:02.296Z,14.10
2019-03-27T22:37:25.754Z,15.40
2019-03-27T22:39:49.178Z,17.67
2019-03-27T22:42:12.649Z,16.87
2019-03-27T22:44:36.467Z,18.73
2019-03-27T22:46:59.893Z,18.37
2019-03-27T22:49:23.306Z,13.60
2019-03-27T22:51:46.764Z,11.70
2019-03-27T22:54:10.190Z,13.90
2019-03-27T22:56:33.644Z,14.10
2019-03-27T22:58:57.063Z,16.67
2019-03-27T23:01:20.508Z,12.50
2019-03-27T23:03:43.970Z,14.23
2019-03-27T23:06:07.522Z,14.20
2019-03-27T23:08:30.935Z,16.73
2019-03-27T23:10:54.379Z,12.70
2019-03-27T23:13:17.829Z,12.87
2019-03-27T23:15:41.300Z,13.83
2019-03-27T23:18:05.338Z,15.83
2019-03-27T23:20:28.767Z,17.83
2019-03-27T23:22:52.225Z,17.97
2019-03-27T23:25:15.723Z,17.17
2019-03-27T23:27:39.143Z,14.97
2019-03-27T23:30:02.596Z,13.23
2019-03-27T23:32:26.086Z,12.10
2019-03-27T23:34:49.547Z,13.77
2019-03-27T23:37:12.965Z,12.90
2019-03-27T23:39:36.411Z,11.80
2019-03-27T23:41:59.843Z,15.87
2019-03-27T23:44:23.386Z,19.97
2019-03-27T23:46:46.815Z,20.10
2019-03-27T23:49:10.582Z,22.33
2019-03-27T23:51:34.114Z,22.80
2019-03-27T23:53:57.540Z,19.57
2019-03-27T23:56:20.991Z,21.63
2019-03-27T23:58:44.453Z,21.53
